Kyle, West Virginia
Current Conditions -  °F | °C
As of 5:52 AM on Thursday 18 Dec 2014 (Local Time) from KBLF Reporting Station
Overcast Overcast  
Wind Chill: 21°   Ceiling: 1000
Heat Index: 28°   Visibility: 10mi
Dew Point: 21°   Wind: 7mph
Humidity: 75%   Direction: 290°WNW
Pressure: 30.11"   Gusts: NA
Location:  37.41°N, 81.43°W
Report Text: KBLF 181052Z AUTO 29006KT 10SM OVC010 M02/M06 A3011 RMK AO2 SLP213 T10221061
Loading
Personal Weather Stations






























Interactive Weather Map New forecast layout! Learn more

10-Day Weather Forecast

Advertisements
Track Severe Weather on mobile